メインページ
METAR-TAF:

METAR-TAF

空港 :

ラシュト, イラン

緯度: 37-12N, 経度: 049-38E, 海抜: -7m

現時点の気象観測

当レポートは38分前の07:30(UTC)に作成
の風 6kt
気温 11°C
湿度 76%
気圧 1023 hPa
視程: 8000m
高度1000ftの雲はほとんどない, 積乱雲.
高度1500ftの千切れ雲あり
高度7000ftの曇り

METAR: OIGG 190730Z 01006KT 8000 FEW010CB BKN015 OVC070 11/07 Q1023

時間: 11:38 (08:08 UTC)


TAF: 見つかりません

4,000以上の空港の気象観測と天気予報(METAR報とTAF報)

利用可能な観測所は地図上に黄色い丸と赤い丸で示す。

丸の上にカーソルを重ねると観測所名を参照できる。

次にクリックすると気象観測と天気予報を参照できる。

マップの切り替え:黒色「×」印の緑ボタンをクリックして拡大、「-」印の緑ボタンをクリックして縮小、緑色の三角印をクリックして隣りの地図に切り替え


METAR-TAF: